CheckWX is a tool to help pilots better visualize weather data.  It is not intended as a substitute for an official pre-flight weather briefing.

00:55:48 UTC

C29 METAR
Middleton Municipal - Morey Field Airport
Middleton, Wisconsin, USA
Current

21 mins ago

KC29 240035Z AUTO 19003KT 10SM CLR 08/00 A3019 RMK AO1 T00831002
Observed
Mar-24 @ 00:35 UTC
Wind
  • 190° at 3 KTS
Visibility
10 SM
Flight Rules
VFR
Cloud Levels
  • Clear skies
Temperature
C / 46°F
Dewpoint
-0°C / 32°F
Humidity
57%
Altimeter
30.19" Hg
Pressure
1022.32 hPa
Previous

41 mins ago

KC29 240015Z AUTO 20005KT 10SM CLR 09/M01 A3019 RMK AO1 T00881006
Observed
Mar-24 @ 00:15 UTC
Wind
  • 200° at 5 KTS
Visibility
10 SM
Flight Rules
VFR
Cloud Levels
  • Clear skies
Temperature
C / 48°F
Dewpoint
-1°C / 30°F
Humidity
50%
Altimeter
30.19" Hg
Pressure
1022.32 hPa
Previous

1 hour ago

KC29 232355Z AUTO 21005KT 10SM CLR 10/M01 A3019 RMK AO1 T00991008 10130 20099
Observed
Mar-23 @ 23:55 UTC
Wind
  • 210° at 5 KTS
Visibility
10 SM
Flight Rules
VFR
Cloud Levels
  • Clear skies
Temperature
10°C / 50°F
Dewpoint
-1°C / 30°F
Humidity
47%
Altimeter
30.19" Hg
Pressure
1022.32 hPa